sensor_id;sensor_type;location;lat;lon;timestamp;P1;durP1;ratioP1;P2;durP2;ratioP2
63945;SDS011;50122;56.330;43.838;2023-02-13T00:00:37;4.28;;;2.30;;
63945;SDS011;50122;56.330;43.838;2023-02-13T00:03:04;4.72;;;2.38;;
63945;SDS011;50122;56.330;43.838;2023-02-13T00:05:31;4.47;;;2.70;;
63945;SDS011;50122;56.330;43.838;2023-02-13T00:07:57;7.50;;;1.95;;
63945;SDS011;50122;56.330;43.838;2023-02-13T00:10:24;4.18;;;2.13;;
63945;SDS011;50122;56.330;43.838;2023-02-13T00:12:50;2.72;;;1.80;;
63945;SDS011;50122;56.330;43.838;2023-02-13T00:15:17;6.07;;;2.20;;
63945;SDS011;50122;56.330;43.838;2023-02-13T00:17:44;3.35;;;1.80;;
63945;SDS011;50122;56.330;43.838;2023-02-13T00:20:10;2.97;;;1.95;;
63945;SDS011;50122;56.330;43.838;2023-02-13T00:22:37;2.40;;;1.70;;
63945;SDS011;50122;56.330;43.838;2023-02-13T00:25:04;5.38;;;2.17;;
63945;SDS011;50122;56.330;43.838;2023-02-13T00:27:33;5.55;;;1.90;;
63945;SDS011;50122;56.330;43.838;2023-02-13T00:30:00;3.38;;;1.88;;
63945;SDS011;50122;56.330;43.838;2023-02-13T00:32:26;4.57;;;2.50;;
63945;SDS011;50122;56.330;43.838;2023-02-13T00:34:54;7.30;;;2.45;;
63945;SDS011;50122;56.330;43.838;2023-02-13T00:37:21;3.83;;;2.20;;
63945;SDS011;50122;56.330;43.838;2023-02-13T00:39:48;4.90;;;2.33;;
63945;SDS011;50122;56.330;43.838;2023-02-13T00:42:16;4.13;;;2.30;;
63945;SDS011;50122;56.330;43.838;2023-02-13T00:44:43;3.47;;;2.05;;
63945;SDS011;50122;56.330;43.838;2023-02-13T00:47:09;3.63;;;1.85;;
63945;SDS011;50122;56.330;43.838;2023-02-13T00:49:40;2.47;;;1.77;;
63945;SDS011;50122;56.330;43.838;2023-02-13T00:52:07;2.78;;;1.60;;
63945;SDS011;50122;56.330;43.838;2023-02-13T00:54:33;4.05;;;2.10;;
63945;SDS011;50122;56.330;43.838;2023-02-13T00:57:01;4.53;;;2.17;;
63945;SDS011;50122;56.330;43.838;2023-02-13T00:59:28;2.60;;;1.88;;
63945;SDS011;50122;56.330;43.838;2023-02-13T01:01:55;3.72;;;1.70;;
63945;SDS011;50122;56.330;43.838;2023-02-13T01:04:22;5.47;;;2.15;;
63945;SDS011;50122;56.330;43.838;2023-02-13T01:06:49;4.30;;;1.90;;
63945;SDS011;50122;56.330;43.838;2023-02-13T01:09:15;3.47;;;1.85;;
63945;SDS011;50122;56.330;43.838;2023-02-13T01:11:42;5.38;;;2.17;;
63945;SDS011;50122;56.330;43.838;2023-02-13T01:14:09;5.63;;;2.70;;
63945;SDS011;50122;56.330;43.838;2023-02-13T01:16:35;4.43;;;2.20;;
63945;SDS011;50122;56.330;43.838;2023-02-13T01:19:03;6.68;;;1.92;;
63945;SDS011;50122;56.330;43.838;2023-02-13T01:21:30;4.85;;;2.30;;
63945;SDS011;50122;56.330;43.838;2023-02-13T01:23:57;3.60;;;2.20;;
63945;SDS011;50122;56.330;43.838;2023-02-13T01:26:24;4.43;;;2.05;;
63945;SDS011;50122;56.330;43.838;2023-02-13T01:28:52;2.70;;;1.58;;
63945;SDS011;50122;56.330;43.838;2023-02-13T01:31:20;3.17;;;1.92;;
63945;SDS011;50122;56.330;43.838;2023-02-13T01:33:48;2.35;;;1.65;;
63945;SDS011;50122;56.330;43.838;2023-02-13T01:36:15;3.53;;;1.90;;
63945;SDS011;50122;56.330;43.838;2023-02-13T01:38:42;1.80;;;1.52;;
63945;SDS011;50122;56.330;43.838;2023-02-13T01:41:09;4.03;;;2.00;;
63945;SDS011;50122;56.330;43.838;2023-02-13T01:46:51;1.95;;;1.52;;
63945;SDS011;50122;56.330;43.838;2023-02-13T01:49:19;3.55;;;1.88;;
63945;SDS011;50122;56.330;43.838;2023-02-13T01:51:48;2.25;;;1.95;;
63945;SDS011;50122;56.330;43.838;2023-02-13T01:54:22;4.97;;;2.10;;
63945;SDS011;50122;56.330;43.838;2023-02-13T01:56:58;7.03;;;2.60;;
63945;SDS011;50122;56.330;43.838;2023-02-13T01:59:34;4.07;;;2.67;;
63945;SDS011;50122;56.330;43.838;2023-02-13T02:02:06;3.75;;;2.30;;
63945;SDS011;50122;56.330;43.838;2023-02-13T02:04:35;6.03;;;3.10;;
63945;SDS011;50122;56.330;43.838;2023-02-13T02:07:07;6.53;;;3.90;;
63945;SDS011;50122;56.330;43.838;2023-02-13T02:09:48;8.68;;;3.35;;
63945;SDS011;50122;56.330;43.838;2023-02-13T02:12:27;11.25;;;4.50;;
63945;SDS011;50122;56.330;43.838;2023-02-13T02:14:58;2.53;;;1.90;;
63945;SDS011;50122;56.330;43.838;2023-02-13T02:17:26;2.90;;;1.95;;
63945;SDS011;50122;56.330;43.838;2023-02-13T02:25:27;3.78;;;2.17;;
63945;SDS011;50122;56.330;43.838;2023-02-13T02:41:11;3.92;;;2.20;;
63945;SDS011;50122;56.330;43.838;2023-02-13T02:49:40;4.10;;;2.45;;
63945;SDS011;50122;56.330;43.838;2023-02-13T02:52:38;4.53;;;2.40;;
63945;SDS011;50122;56.330;43.838;2023-02-13T02:55:17;4.13;;;2.33;;
63945;SDS011;50122;56.330;43.838;2023-02-13T02:57:51;4.18;;;2.40;;
63945;SDS011;50122;56.330;43.838;2023-02-13T03:00:43;5.90;;;2.28;;
63945;SDS011;50122;56.330;43.838;2023-02-13T03:03:31;5.28;;;2.22;;
63945;SDS011;50122;56.330;43.838;2023-02-13T03:06:20;3.50;;;2.25;;
63945;SDS011;50122;56.330;43.838;2023-02-13T03:08:56;5.50;;;2.40;;
63945;SDS011;50122;56.330;43.838;2023-02-13T03:11:47;5.78;;;2.42;;
63945;SDS011;50122;56.330;43.838;2023-02-13T03:14:34;3.90;;;2.55;;
63945;SDS011;50122;56.330;43.838;2023-02-13T03:17:02;5.30;;;2.50;;
63945;SDS011;50122;56.330;43.838;2023-02-13T03:34:03;5.60;;;2.40;;
63945;SDS011;50122;56.330;43.838;2023-02-13T03:39:59;5.30;;;2.40;;
63945;SDS011;50122;56.330;43.838;2023-02-13T03:45:11;8.07;;;1.80;;
63945;SDS011;50122;56.330;43.838;2023-02-13T03:48:02;8.63;;;3.50;;
63945;SDS011;50122;56.330;43.838;2023-02-13T03:50:57;8.18;;;3.35;;
63945;SDS011;50122;56.330;43.838;2023-02-13T03:53:27;6.22;;;3.33;;
63945;SDS011;50122;56.330;43.838;2023-02-13T03:55:56;7.10;;;3.85;;
63945;SDS011;50122;56.330;43.838;2023-02-13T03:58:49;5.22;;;3.13;;
63945;SDS011;50122;56.330;43.838;2023-02-13T04:01:37;8.93;;;3.92;;
63945;SDS011;50122;56.330;43.838;2023-02-13T04:04:21;6.60;;;3.15;;
63945;SDS011;50122;56.330;43.838;2023-02-13T04:07:03;2.83;;;1.92;;
63945;SDS011;50122;56.330;43.838;2023-02-13T04:09:33;5.43;;;2.88;;
63945;SDS011;50122;56.330;43.838;2023-02-13T04:17:30;3.60;;;2.22;;
63945;SDS011;50122;56.330;43.838;2023-02-13T04:20:01;7.30;;;3.65;;
63945;SDS011;50122;56.330;43.838;2023-02-13T04:22:29;6.57;;;3.03;;
63945;SDS011;50122;56.330;43.838;2023-02-13T04:24:55;3.22;;;2.35;;
63945;SDS011;50122;56.330;43.838;2023-02-13T04:27:24;4.18;;;2.10;;
63945;SDS011;50122;56.330;43.838;2023-02-13T04:29:53;3.78;;;2.50;;
63945;SDS011;50122;56.330;43.838;2023-02-13T04:32:20;4.20;;;2.65;;
63945;SDS011;50122;56.330;43.838;2023-02-13T04:34:47;2.70;;;1.92;;
63945;SDS011;50122;56.330;43.838;2023-02-13T04:37:14;5.97;;;3.33;;
63945;SDS011;50122;56.330;43.838;2023-02-13T04:39:41;8.80;;;3.97;;
63945;SDS011;50122;56.330;43.838;2023-02-13T04:42:07;5.47;;;2.90;;
63945;SDS011;50122;56.330;43.838;2023-02-13T04:44:34;7.15;;;3.17;;
63945;SDS011;50122;56.330;43.838;2023-02-13T04:47:01;5.40;;;2.92;;
63945;SDS011;50122;56.330;43.838;2023-02-13T04:49:27;3.72;;;2.42;;
63945;SDS011;50122;56.330;43.838;2023-02-13T04:51:54;17.50;;;2.65;;
63945;SDS011;50122;56.330;43.838;2023-02-13T04:54:20;4.43;;;2.85;;
63945;SDS011;50122;56.330;43.838;2023-02-13T04:56:47;2.90;;;2.05;;
63945;SDS011;50122;56.330;43.838;2023-02-13T04:59:15;7.53;;;3.58;;
63945;SDS011;50122;56.330;43.838;2023-02-13T05:01:42;9.73;;;4.97;;
63945;SDS011;50122;56.330;43.838;2023-02-13T05:04:09;7.78;;;4.60;;
63945;SDS011;50122;56.330;43.838;2023-02-13T05:06:36;8.82;;;3.85;;
63945;SDS011;50122;56.330;43.838;2023-02-13T05:09:04;4.78;;;3.00;;
63945;SDS011;50122;56.330;43.838;2023-02-13T05:11:31;3.58;;;2.25;;
63945;SDS011;50122;56.330;43.838;2023-02-13T05:13:57;4.63;;;2.53;;
63945;SDS011;50122;56.330;43.838;2023-02-13T05:16:24;6.90;;;3.58;;
63945;SDS011;50122;56.330;43.838;2023-02-13T05:18:51;7.82;;;2.97;;
63945;SDS011;50122;56.330;43.838;2023-02-13T05:21:20;6.47;;;3.42;;
63945;SDS011;50122;56.330;43.838;2023-02-13T05:24:05;3.15;;;2.78;;
63945;SDS011;50122;56.330;43.838;2023-02-13T05:26:32;6.43;;;3.10;;
63945;SDS011;50122;56.330;43.838;2023-02-13T05:28:59;6.18;;;3.17;;
63945;SDS011;50122;56.330;43.838;2023-02-13T17:28:42;10.27;;;4.35;;
63945;SDS011;50122;56.330;43.838;2023-02-13T17:31:12;6.53;;;3.55;;
63945;SDS011;50122;56.330;43.838;2023-02-13T17:33:39;7.75;;;4.53;;
63945;SDS011;50122;56.330;43.838;2023-02-13T17:36:08;6.00;;;2.88;;
63945;SDS011;50122;56.330;43.838;2023-02-13T17:38:38;8.13;;;4.53;;
63945;SDS011;50122;56.330;43.838;2023-02-13T17:41:07;8.93;;;4.60;;
63945;SDS011;50122;56.330;43.838;2023-02-13T17:43:39;7.85;;;4.22;;
63945;SDS011;50122;56.330;43.838;2023-02-13T17:46:06;6.97;;;3.92;;
63945;SDS011;50122;56.330;43.838;2023-02-13T17:48:33;9.27;;;4.60;;
63945;SDS011;50122;56.330;43.838;2023-02-13T17:51:01;7.50;;;4.05;;
63945;SDS011;50122;56.330;43.838;2023-02-13T17:53:28;9.30;;;5.65;;
63945;SDS011;50122;56.330;43.838;2023-02-13T17:55:55;13.75;;;6.30;;
63945;SDS011;50122;56.330;43.838;2023-02-13T17:58:22;11.25;;;6.10;;
63945;SDS011;50122;56.330;43.838;2023-02-13T18:00:49;8.90;;;4.53;;
63945;SDS011;50122;56.330;43.838;2023-02-13T18:03:16;9.80;;;3.80;;
63945;SDS011;50122;56.330;43.838;2023-02-13T18:05:43;9.30;;;3.67;;
63945;SDS011;50122;56.330;43.838;2023-02-13T18:08:13;9.27;;;4.18;;
63945;SDS011;50122;56.330;43.838;2023-02-13T18:10:40;7.22;;;4.13;;
63945;SDS011;50122;56.330;43.838;2023-02-13T18:13:10;10.52;;;4.97;;
63945;SDS011;50122;56.330;43.838;2023-02-13T18:15:41;9.98;;;5.25;;
63945;SDS011;50122;56.330;43.838;2023-02-13T18:18:09;17.73;;;7.80;;
63945;SDS011;50122;56.330;43.838;2023-02-13T18:20:41;13.95;;;7.30;;
63945;SDS011;50122;56.330;43.838;2023-02-13T18:23:08;17.60;;;7.82;;
63945;SDS011;50122;56.330;43.838;2023-02-13T18:25:34;7.22;;;4.15;;
63945;SDS011;50122;56.330;43.838;2023-02-13T18:28:03;9.18;;;5.05;;
63945;SDS011;50122;56.330;43.838;2023-02-13T18:30:30;9.95;;;3.78;;
63945;SDS011;50122;56.330;43.838;2023-02-13T18:32:56;8.75;;;4.60;;
63945;SDS011;50122;56.330;43.838;2023-02-13T18:35:25;8.57;;;4.55;;
63945;SDS011;50122;56.330;43.838;2023-02-13T18:37:51;9.82;;;4.78;;
63945;SDS011;50122;56.330;43.838;2023-02-13T18:40:18;11.07;;;5.00;;
63945;SDS011;50122;56.330;43.838;2023-02-13T18:42:46;16.55;;;7.20;;
63945;SDS011;50122;56.330;43.838;2023-02-13T18:45:15;10.25;;;5.10;;
63945;SDS011;50122;56.330;43.838;2023-02-13T18:47:42;6.10;;;3.70;;
63945;SDS011;50122;56.330;43.838;2023-02-13T18:50:09;8.82;;;4.97;;
63945;SDS011;50122;56.330;43.838;2023-02-13T18:52:36;9.30;;;5.18;;
63945;SDS011;50122;56.330;43.838;2023-02-13T18:55:02;8.77;;;4.80;;
63945;SDS011;50122;56.330;43.838;2023-02-13T18:57:33;8.80;;;4.70;;
63945;SDS011;50122;56.330;43.838;2023-02-13T19:00:00;9.02;;;5.50;;
63945;SDS011;50122;56.330;43.838;2023-02-13T19:02:27;10.60;;;6.03;;
63945;SDS011;50122;56.330;43.838;2023-02-13T19:04:53;11.52;;;5.35;;
63945;SDS011;50122;56.330;43.838;2023-02-13T19:07:24;10.02;;;5.00;;
63945;SDS011;50122;56.330;43.838;2023-02-13T19:09:54;8.70;;;4.50;;
63945;SDS011;50122;56.330;43.838;2023-02-13T19:12:21;10.75;;;4.85;;
63945;SDS011;50122;56.330;43.838;2023-02-13T19:14:47;10.88;;;4.95;;
63945;SDS011;50122;56.330;43.838;2023-02-13T19:17:14;10.25;;;5.05;;
63945;SDS011;50122;56.330;43.838;2023-02-13T19:19:43;10.30;;;5.57;;
63945;SDS011;50122;56.330;43.838;2023-02-13T19:22:10;8.98;;;5.07;;
63945;SDS011;50122;56.330;43.838;2023-02-13T19:24:37;7.70;;;4.45;;
63945;SDS011;50122;56.330;43.838;2023-02-13T19:27:03;8.35;;;5.28;;
63945;SDS011;50122;56.330;43.838;2023-02-13T19:29:32;12.02;;;6.00;;
63945;SDS011;50122;56.330;43.838;2023-02-13T19:32:01;9.88;;;4.90;;
63945;SDS011;50122;56.330;43.838;2023-02-13T19:34:28;11.15;;;5.63;;
63945;SDS011;50122;56.330;43.838;2023-02-13T19:36:55;10.30;;;5.50;;
63945;SDS011;50122;56.330;43.838;2023-02-13T19:39:22;7.85;;;4.88;;
63945;SDS011;50122;56.330;43.838;2023-02-13T19:41:51;13.23;;;6.15;;
63945;SDS011;50122;56.330;43.838;2023-02-13T19:44:17;15.32;;;7.10;;
63945;SDS011;50122;56.330;43.838;2023-02-13T19:46:44;13.77;;;7.05;;
63945;SDS011;50122;56.330;43.838;2023-02-13T19:49:11;11.20;;;5.15;;
63945;SDS011;50122;56.330;43.838;2023-02-13T19:51:38;13.98;;;6.20;;
63945;SDS011;50122;56.330;43.838;2023-02-13T19:54:07;15.15;;;7.35;;
63945;SDS011;50122;56.330;43.838;2023-02-13T19:56:41;14.07;;;6.25;;
63945;SDS011;50122;56.330;43.838;2023-02-13T19:59:09;12.77;;;6.63;;
63945;SDS011;50122;56.330;43.838;2023-02-13T20:01:38;13.70;;;5.80;;
63945;SDS011;50122;56.330;43.838;2023-02-13T20:04:09;9.63;;;5.13;;
63945;SDS011;50122;56.330;43.838;2023-02-13T20:06:37;11.45;;;5.30;;
63945;SDS011;50122;56.330;43.838;2023-02-13T20:09:05;14.90;;;6.68;;
63945;SDS011;50122;56.330;43.838;2023-02-13T20:11:34;8.25;;;4.65;;
63945;SDS011;50122;56.330;43.838;2023-02-13T20:14:00;8.40;;;4.47;;
63945;SDS011;50122;56.330;43.838;2023-02-13T20:16:30;12.23;;;6.22;;
63945;SDS011;50122;56.330;43.838;2023-02-13T20:19:00;11.00;;;5.60;;
63945;SDS011;50122;56.330;43.838;2023-02-13T20:21:34;7.50;;;4.70;;
63945;SDS011;50122;56.330;43.838;2023-02-13T20:24:01;9.32;;;5.45;;
63945;SDS011;50122;56.330;43.838;2023-02-13T20:26:28;7.88;;;4.80;;
63945;SDS011;50122;56.330;43.838;2023-02-13T20:28:55;10.52;;;5.63;;
63945;SDS011;50122;56.330;43.838;2023-02-13T20:31:24;9.40;;;5.47;;
63945;SDS011;50122;56.330;43.838;2023-02-13T20:33:52;10.00;;;5.70;;
63945;SDS011;50122;56.330;43.838;2023-02-13T20:36:22;8.30;;;5.50;;
63945;SDS011;50122;56.330;43.838;2023-02-13T20:38:52;10.40;;;5.68;;
63945;SDS011;50122;56.330;43.838;2023-02-13T20:41:21;13.00;;;6.07;;
63945;SDS011;50122;56.330;43.838;2023-02-13T20:43:49;7.97;;;5.00;;
63945;SDS011;50122;56.330;43.838;2023-02-13T20:46:17;10.30;;;5.00;;
63945;SDS011;50122;56.330;43.838;2023-02-13T20:48:45;10.35;;;5.57;;
63945;SDS011;50122;56.330;43.838;2023-02-13T20:51:13;10.00;;;6.07;;
63945;SDS011;50122;56.330;43.838;2023-02-13T20:53:41;11.95;;;6.00;;
63945;SDS011;50122;56.330;43.838;2023-02-13T20:56:10;9.73;;;5.97;;
63945;SDS011;50122;56.330;43.838;2023-02-13T20:58:37;11.02;;;5.93;;
63945;SDS011;50122;56.330;43.838;2023-02-13T21:01:19;11.07;;;6.05;;
63945;SDS011;50122;56.330;43.838;2023-02-13T21:03:45;11.27;;;6.30;;
63945;SDS011;50122;56.330;43.838;2023-02-13T21:06:19;10.50;;;5.70;;
63945;SDS011;50122;56.330;43.838;2023-02-13T21:08:47;9.45;;;5.22;;
63945;SDS011;50122;56.330;43.838;2023-02-13T21:11:13;11.60;;;5.93;;
63945;SDS011;50122;56.330;43.838;2023-02-13T21:13:40;9.38;;;5.80;;
63945;SDS011;50122;56.330;43.838;2023-02-13T21:16:08;10.23;;;5.95;;
63945;SDS011;50122;56.330;43.838;2023-02-13T21:18:48;10.65;;;5.60;;
63945;SDS011;50122;56.330;43.838;2023-02-13T21:21:16;9.73;;;5.93;;
63945;SDS011;50122;56.330;43.838;2023-02-13T21:23:44;11.80;;;6.63;;
63945;SDS011;50122;56.330;43.838;2023-02-13T21:26:15;11.60;;;7.00;;
63945;SDS011;50122;56.330;43.838;2023-02-13T21:28:43;12.35;;;6.88;;
63945;SDS011;50122;56.330;43.838;2023-02-13T21:33:46;11.13;;;6.47;;
63945;SDS011;50122;56.330;43.838;2023-02-13T21:36:12;10.05;;;6.45;;
63945;SDS011;50122;56.330;43.838;2023-02-13T21:38:39;13.07;;;7.10;;
63945;SDS011;50122;56.330;43.838;2023-02-13T21:41:16;12.73;;;6.65;;
63945;SDS011;50122;56.330;43.838;2023-02-13T21:43:43;13.13;;;7.07;;
63945;SDS011;50122;56.330;43.838;2023-02-13T21:46:15;11.07;;;6.50;;
63945;SDS011;50122;56.330;43.838;2023-02-13T21:48:44;12.68;;;6.45;;
63945;SDS011;50122;56.330;43.838;2023-02-13T21:51:16;12.02;;;6.18;;
63945;SDS011;50122;56.330;43.838;2023-02-13T21:53:45;13.85;;;6.57;;
63945;SDS011;50122;56.330;43.838;2023-02-13T21:56:14;9.88;;;6.82;;
63945;SDS011;50122;56.330;43.838;2023-02-13T21:58:43;12.10;;;7.30;;
63945;SDS011;50122;56.330;43.838;2023-02-13T22:01:11;14.27;;;8.07;;
63945;SDS011;50122;56.330;43.838;2023-02-13T22:03:52;12.23;;;6.50;;
63945;SDS011;50122;56.330;43.838;2023-02-13T22:06:25;10.90;;;7.00;;
63945;SDS011;50122;56.330;43.838;2023-02-13T22:08:56;13.65;;;7.40;;
63945;SDS011;50122;56.330;43.838;2023-02-13T22:11:25;12.65;;;7.15;;
63945;SDS011;50122;56.330;43.838;2023-02-13T22:13:52;11.02;;;6.65;;
63945;SDS011;50122;56.330;43.838;2023-02-13T22:16:21;11.80;;;6.90;;
63945;SDS011;50122;56.330;43.838;2023-02-13T22:18:48;11.32;;;6.57;;
63945;SDS011;50122;56.330;43.838;2023-02-13T22:21:17;11.10;;;7.00;;
63945;SDS011;50122;56.330;43.838;2023-02-13T22:23:45;11.40;;;6.57;;
63945;SDS011;50122;56.330;43.838;2023-02-13T22:26:20;12.05;;;6.75;;
63945;SDS011;50122;56.330;43.838;2023-02-13T22:29:08;10.38;;;6.22;;
63945;SDS011;50122;56.330;43.838;2023-02-13T22:31:37;11.52;;;6.32;;
63945;SDS011;50122;56.330;43.838;2023-02-13T22:34:04;10.75;;;6.45;;
63945;SDS011;50122;56.330;43.838;2023-02-13T22:36:34;9.95;;;6.18;;
63945;SDS011;50122;56.330;43.838;2023-02-13T22:39:07;10.93;;;6.65;;
63945;SDS011;50122;56.330;43.838;2023-02-13T22:41:35;10.23;;;6.32;;
63945;SDS011;50122;56.330;43.838;2023-02-13T22:44:02;10.63;;;6.40;;
63945;SDS011;50122;56.330;43.838;2023-02-13T22:46:30;9.85;;;6.80;;
63945;SDS011;50122;56.330;43.838;2023-02-13T22:48:58;10.43;;;6.55;;
63945;SDS011;50122;56.330;43.838;2023-02-13T22:51:26;11.38;;;6.85;;
63945;SDS011;50122;56.330;43.838;2023-02-13T22:53:56;11.40;;;6.88;;
63945;SDS011;50122;56.330;43.838;2023-02-13T22:56:24;11.52;;;7.15;;
63945;SDS011;50122;56.330;43.838;2023-02-13T22:58:52;10.93;;;6.95;;
63945;SDS011;50122;56.330;43.838;2023-02-13T23:01:19;11.48;;;7.20;;
63945;SDS011;50122;56.330;43.838;2023-02-13T23:03:47;10.35;;;6.55;;
63945;SDS011;50122;56.330;43.838;2023-02-13T23:06:14;11.10;;;7.28;;
63945;SDS011;50122;56.330;43.838;2023-02-13T23:08:43;9.95;;;6.75;;
63945;SDS011;50122;56.330;43.838;2023-02-13T23:11:11;10.90;;;6.88;;
63945;SDS011;50122;56.330;43.838;2023-02-13T23:13:59;12.13;;;7.20;;
63945;SDS011;50122;56.330;43.838;2023-02-13T23:16:26;9.57;;;6.63;;
63945;SDS011;50122;56.330;43.838;2023-02-13T23:18:53;10.63;;;7.07;;
63945;SDS011;50122;56.330;43.838;2023-02-13T23:21:23;13.30;;;6.75;;
63945;SDS011;50122;56.330;43.838;2023-02-13T23:23:50;10.10;;;6.90;;
63945;SDS011;50122;56.330;43.838;2023-02-13T23:26:17;10.15;;;6.57;;
63945;SDS011;50122;56.330;43.838;2023-02-13T23:28:44;11.40;;;6.28;;
63945;SDS011;50122;56.330;43.838;2023-02-13T23:31:11;12.18;;;6.78;;
63945;SDS011;50122;56.330;43.838;2023-02-13T23:33:38;12.25;;;7.25;;
63945;SDS011;50122;56.330;43.838;2023-02-13T23:36:05;10.20;;;6.53;;
63945;SDS011;50122;56.330;43.838;2023-02-13T23:38:32;10.98;;;6.88;;
63945;SDS011;50122;56.330;43.838;2023-02-13T23:41:04;10.32;;;7.13;;
63945;SDS011;50122;56.330;43.838;2023-02-13T23:43:34;10.05;;;6.78;;
63945;SDS011;50122;56.330;43.838;2023-02-13T23:46:01;9.98;;;6.80;;
63945;SDS011;50122;56.330;43.838;2023-02-13T23:48:29;11.80;;;7.50;;
63945;SDS011;50122;56.330;43.838;2023-02-13T23:50:57;11.38;;;6.38;;
63945;SDS011;50122;56.330;43.838;2023-02-13T23:53:24;11.85;;;7.15;;
63945;SDS011;50122;56.330;43.838;2023-02-13T23:55:50;12.50;;;7.13;;
63945;SDS011;50122;56.330;43.838;2023-02-13T23:58:17;11.70;;;7.63;;
